Time;durP1;ratioP1;P1;durP2;ratioP2;P2;SDS_P1;SDS_P2;PMS_P1;PMS_P2;Temp;Humidity;BMP_temperature;BMP_pressure;BME280_temperature;BME280_humidity;BME280_pressure;Samples;Min_cycle;Max_cycle;Signal;HPM_P1;HPM_P2
2022/01/16 00:01:06;;;;;;;43.87;26.03;;;;;;;;;;5061060;28;20486;-86
2022/01/16 00:06:18;;;;;;;37.43;22.33;;;;;;;;;;5060807;28;20454;-86
2022/01/16 00:08:45;;;;;;;35.67;21.47;;;;;;;;;;5060282;28;20455;-86
2022/01/16 00:11:12;;;;;;;43.43;25.80;;;;;;;;;;5060852;28;20825;-87
2022/01/16 00:13:38;;;;;;;49.83;21.87;;;;;;;;;;5058863;28;20551;-86
2022/01/16 00:16:05;;;;;;;38.67;21.53;;;;;;;;;;5061396;28;20988;-86
2022/01/16 00:18:41;;;;;;;38.97;21.97;;;;;;;;;;5059647;28;20455;-86
2022/01/16 00:21:08;;;;;;;63.53;24.57;;;;;;;;;;5061830;28;20529;-86
2022/01/16 00:23:36;;;;;;;43.60;22.63;;;;;;;;;;5062431;28;20463;-86
2022/01/16 00:26:02;;;;;;;48.17;22.50;;;;;;;;;;5061597;28;20467;-86
2022/01/16 00:28:28;;;;;;;40.63;22.97;;;;;;;;;;5059760;28;20474;-86
2022/01/16 00:30:54;;;;;;;47.77;27.27;;;;;;;;;;5058763;28;20815;-86
2022/01/16 00:33:21;;;;;;;47.40;24.67;;;;;;;;;;5060214;28;20857;-86
2022/01/16 00:35:47;;;;;;;58.67;27.93;;;;;;;;;;5062210;28;20471;-85
2022/01/16 00:38:14;;;;;;;45.30;25.60;;;;;;;;;;5060357;28;20452;-86
2022/01/16 00:40:42;;;;;;;48.67;24.93;;;;;;;;;;5060107;28;20820;-86
2022/01/16 00:43:08;;;;;;;46.80;25.57;;;;;;;;;;5062199;28;20613;-86
2022/01/16 00:45:35;;;;;;;52.33;26.73;;;;;;;;;;5060782;28;20483;-86
2022/01/16 00:48:02;;;;;;;57.37;26.83;;;;;;;;;;5064691;28;20452;-85
2022/01/16 00:50:28;;;;;;;49.27;26.10;;;;;;;;;;5064436;28;20489;-86
2022/01/16 00:52:55;;;;;;;61.23;27.60;;;;;;;;;;5064809;28;20933;-86
2022/01/16 00:55:21;;;;;;;51.67;26.50;;;;;;;;;;5065782;28;20477;-86
2022/01/16 00:57:49;;;;;;;65.80;29.47;;;;;;;;;;5065763;28;20482;-86
2022/01/16 01:00:15;;;;;;;52.43;28.13;;;;;;;;;;5062711;28;20482;-86
2022/01/16 01:02:41;;;;;;;47.40;25.97;;;;;;;;;;5065300;28;21076;-86
2022/01/16 01:05:08;;;;;;;54.27;27.10;;;;;;;;;;5063835;28;20467;-86
2022/01/16 01:07:35;;;;;;;48.87;24.13;;;;;;;;;;5065061;28;20483;-86
2022/01/16 01:10:01;;;;;;;49.37;25.67;;;;;;;;;;5065254;28;20506;-87
2022/01/16 01:12:30;;;;;;;46.80;23.93;;;;;;;;;;5065503;28;20853;-86
2022/01/16 01:15:07;;;;;;;55.17;25.80;;;;;;;;;;5064520;28;20479;-86
2022/01/16 01:17:37;;;;;;;63.90;26.30;;;;;;;;;;5065248;28;20488;-86
2022/01/16 01:20:04;;;;;;;54.33;24.83;;;;;;;;;;5063873;28;20468;-86
2022/01/16 01:22:31;;;;;;;53.33;25.60;;;;;;;;;;5065339;28;20673;-86
2022/01/16 01:24:57;;;;;;;52.80;26.27;;;;;;;;;;5064371;28;20471;-86
2022/01/16 01:27:29;;;;;;;45.40;23.30;;;;;;;;;;5067054;28;20451;-86
2022/01/16 01:30:01;;;;;;;51.27;25.80;;;;;;;;;;5063008;28;21005;-86
2022/01/16 01:32:29;;;;;;;56.27;27.80;;;;;;;;;;5063049;28;20497;-86
2022/01/16 01:34:56;;;;;;;63.50;24.70;;;;;;;;;;5062952;28;21001;-86
2022/01/16 01:37:22;;;;;;;52.93;25.47;;;;;;;;;;5061283;28;20493;-86
2022/01/16 01:39:48;;;;;;;52.07;25.60;;;;;;;;;;5063924;28;20462;-86
2022/01/16 01:42:16;;;;;;;55.30;26.53;;;;;;;;;;5065870;28;20447;-86
2022/01/16 01:52:57;;;;;;;55.77;26.73;;;;;;;;;;5061682;28;20953;-86
2022/01/16 01:55:24;;;;;;;61.30;27.93;;;;;;;;;;5064969;28;20467;-86
2022/01/16 01:57:50;;;;;;;58.13;28.57;;;;;;;;;;5062641;28;20493;-86
2022/01/16 02:00:18;;;;;;;60.20;29.40;;;;;;;;;;5062118;28;20971;-86
2022/01/16 02:02:56;;;;;;;61.90;29.43;;;;;;;;;;5061670;28;20452;-86
2022/01/16 02:05:24;;;;;;;58.80;27.00;;;;;;;;;;5063400;28;20504;-86
2022/01/16 02:07:51;;;;;;;65.77;29.97;;;;;;;;;;5064389;28;20448;-86
2022/01/16 02:10:17;;;;;;;57.47;25.77;;;;;;;;;;5062077;28;20466;-84
2022/01/16 02:12:45;;;;;;;60.53;27.60;;;;;;;;;;5066460;28;20528;-84
2022/01/16 02:15:34;;;;;;;63.03;29.30;;;;;;;;;;5066762;28;20940;-84
2022/01/16 02:29:29;;;;;;;66.70;30.90;;;;;;;;;;5064953;28;20435;-84
2022/01/16 02:31:59;;;;;;;62.30;26.37;;;;;;;;;;5064613;28;20831;-84
2022/01/16 02:34:32;;;;;;;66.67;29.43;;;;;;;;;;5064299;28;20458;-84
2022/01/16 02:37:01;;;;;;;67.03;31.20;;;;;;;;;;5065397;28;21036;-84
2022/01/16 02:39:30;;;;;;;72.90;32.17;;;;;;;;;;5064132;28;20456;-84
2022/01/16 02:41:59;;;;;;;62.43;29.87;;;;;;;;;;5062723;28;20467;-84
2022/01/16 02:44:33;;;;;;;51.90;25.87;;;;;;;;;;5065645;28;20478;-84
2022/01/16 02:46:59;;;;;;;62.30;28.20;;;;;;;;;;5057043;22;20638;-82
2022/01/16 02:49:26;;;;;;;68.80;28.00;;;;;;;;;;5020558;28;20496;-80
2022/01/16 02:51:53;;;;;;;58.07;26.90;;;;;;;;;;5025505;28;20466;-86
2022/01/16 02:54:20;;;;;;;55.53;24.40;;;;;;;;;;5022374;28;20476;-82
2022/01/16 02:56:48;;;;;;;56.60;27.27;;;;;;;;;;5015365;28;20493;-83
2022/01/16 02:59:15;;;;;;;47.60;24.60;;;;;;;;;;5003480;28;20553;-81
2022/01/16 03:01:42;;;;;;;44.87;24.13;;;;;;;;;;5005912;28;20451;-85
2022/01/16 03:04:08;;;;;;;48.27;24.57;;;;;;;;;;5004775;28;20473;-82
2022/01/16 03:06:35;;;;;;;51.43;23.23;;;;;;;;;;5006016;28;20475;-82
2022/01/16 03:09:01;;;;;;;53.23;26.20;;;;;;;;;;5005344;28;20458;-81
2022/01/16 03:11:34;;;;;;;44.93;24.27;;;;;;;;;;5005117;28;20482;-84
2022/01/16 03:14:02;;;;;;;47.20;24.10;;;;;;;;;;5006325;28;20465;-83
2022/01/16 03:16:28;;;;;;;43.03;23.40;;;;;;;;;;5003106;28;20477;-85
2022/01/16 03:21:58;;;;;;;49.00;24.67;;;;;;;;;;5007949;28;20523;-84
2022/01/16 03:24:26;;;;;;;54.93;25.53;;;;;;;;;;5004338;28;20896;-81
2022/01/16 03:26:53;;;;;;;55.20;27.30;;;;;;;;;;5005751;28;20474;-81
2022/01/16 03:29:20;;;;;;;46.73;23.43;;;;;;;;;;5004508;28;20451;-83
2022/01/16 03:31:47;;;;;;;58.40;25.23;;;;;;;;;;5004560;28;20970;-82
2022/01/16 03:34:13;;;;;;;56.83;27.17;;;;;;;;;;5004696;28;20469;-82
2022/01/16 03:36:40;;;;;;;46.60;24.67;;;;;;;;;;5006851;28;20495;-84
2022/01/16 03:39:06;;;;;;;54.27;25.83;;;;;;;;;;5003065;28;20689;-81
2022/01/16 03:41:34;;;;;;;50.73;25.63;;;;;;;;;;5006939;28;20818;-82
2022/01/16 03:44:02;;;;;;;53.00;25.13;;;;;;;;;;5007055;28;20969;-81
2022/01/16 03:46:34;;;;;;;57.70;27.00;;;;;;;;;;5006097;28;20873;-83
2022/01/16 03:49:01;;;;;;;50.37;25.30;;;;;;;;;;5005723;28;20462;-86
2022/01/16 03:51:27;;;;;;;54.43;26.20;;;;;;;;;;5003830;28;20484;-81
2022/01/16 03:53:53;;;;;;;58.23;28.20;;;;;;;;;;5005448;28;20454;-85
2022/01/16 03:56:20;;;;;;;49.93;26.03;;;;;;;;;;5006832;28;20834;-83
2022/01/16 03:58:46;;;;;;;59.77;27.77;;;;;;;;;;5004966;28;20478;-84
2022/01/16 04:01:13;;;;;;;61.90;26.47;;;;;;;;;;5004003;28;20486;-83
2022/01/16 04:03:40;;;;;;;53.77;26.80;;;;;;;;;;5007191;28;20449;-82
2022/01/16 04:06:07;;;;;;;56.90;27.10;;;;;;;;;;5005303;28;20485;-84
2022/01/16 04:08:33;;;;;;;62.43;28.43;;;;;;;;;;5005159;28;20469;-84
2022/01/16 04:11:00;;;;;;;65.60;30.70;;;;;;;;;;5006418;28;20486;-82
2022/01/16 04:13:26;;;;;;;57.70;27.20;;;;;;;;;;5005928;28;20464;-84
2022/01/16 04:15:53;;;;;;;59.43;27.17;;;;;;;;;;5005564;28;20472;-82
2022/01/16 04:18:19;;;;;;;58.70;26.83;;;;;;;;;;5007424;28;20483;-81
2022/01/16 04:20:47;;;;;;;60.73;27.73;;;;;;;;;;5001093;28;20477;-80
2022/01/16 04:23:13;;;;;;;62.27;31.83;;;;;;;;;;4999169;28;20469;-84
2022/01/16 04:25:39;;;;;;;68.37;34.40;;;;;;;;;;5002318;28;20592;-83
2022/01/16 04:28:06;;;;;;;71.67;31.60;;;;;;;;;;5001793;28;20466;-83
2022/01/16 04:30:33;;;;;;;61.40;31.43;;;;;;;;;;5001371;28;20473;-83
2022/01/16 04:32:59;;;;;;;71.07;32.37;;;;;;;;;;5001645;28;20454;-83
2022/01/16 04:35:25;;;;;;;64.13;32.37;;;;;;;;;;5001079;28;21006;-83
2022/01/16 04:37:53;;;;;;;61.37;29.70;;;;;;;;;;4999765;28;20485;-83
2022/01/16 04:40:20;;;;;;;61.63;29.80;;;;;;;;;;4999483;28;20474;-82
2022/01/16 04:45:30;;;;;;;55.90;27.40;;;;;;;;;;5001263;28;20839;-83
2022/01/16 04:47:56;;;;;;;67.93;31.80;;;;;;;;;;5000601;28;20487;-82
2022/01/16 04:50:25;;;;;;;66.07;28.40;;;;;;;;;;5001722;28;21011;-83
2022/01/16 04:52:51;;;;;;;58.17;30.10;;;;;;;;;;5001328;28;20818;-85
2022/01/16 04:55:22;;;;;;;76.17;31.57;;;;;;;;;;4999711;28;20473;-81
2022/01/16 04:57:49;;;;;;;69.80;30.70;;;;;;;;;;5001250;28;20585;-84
2022/01/16 05:00:15;;;;;;;62.70;29.70;;;;;;;;;;5001918;28;20483;-81
2022/01/16 05:02:42;;;;;;;63.90;31.53;;;;;;;;;;5001247;28;20460;-83
2022/01/16 05:05:09;;;;;;;70.77;32.03;;;;;;;;;;5002438;28;20855;-85
2022/01/16 05:07:35;;;;;;;78.47;33.33;;;;;;;;;;5002893;28;20475;-84
2022/01/16 05:10:02;;;;;;;78.57;33.40;;;;;;;;;;4997229;28;20535;-82
2022/01/16 05:12:34;;;;;;;77.10;33.07;;;;;;;;;;4999303;28;20472;-81
2022/01/16 05:17:45;;;;;;;82.13;35.47;;;;;;;;;;5002342;28;20522;-82
2022/01/16 05:20:12;;;;;;;82.63;33.73;;;;;;;;;;5000457;28;20478;-83
2022/01/16 05:22:38;;;;;;;86.00;35.70;;;;;;;;;;5000448;28;20454;-81
2022/01/16 05:25:07;;;;;;;79.67;34.60;;;;;;;;;;4999399;28;20477;-82
2022/01/16 05:27:34;;;;;;;87.20;35.67;;;;;;;;;;4998979;28;20474;-81
2022/01/16 05:30:01;;;;;;;87.83;37.60;;;;;;;;;;5001161;28;20480;-82
2022/01/16 05:32:27;;;;;;;90.10;38.63;;;;;;;;;;5003847;28;20464;-81
2022/01/16 05:34:53;;;;;;;95.87;37.63;;;;;;;;;;5003872;28;20471;-85
2022/01/16 05:37:19;;;;;;;94.37;35.10;;;;;;;;;;5006071;28;20486;-84
2022/01/16 05:39:47;;;;;;;83.17;37.60;;;;;;;;;;5005224;28;20838;-83
2022/01/16 05:42:14;;;;;;;90.90;36.87;;;;;;;;;;5006032;28;20465;-82
2022/01/16 05:44:42;;;;;;;85.23;35.63;;;;;;;;;;5001956;28;20473;-83
2022/01/16 05:47:12;;;;;;;78.67;34.23;;;;;;;;;;5005728;28;20843;-82
2022/01/16 05:49:39;;;;;;;84.63;36.13;;;;;;;;;;5004126;28;20489;-84
2022/01/16 05:52:06;;;;;;;100.37;37.27;;;;;;;;;;5005692;28;20452;-82
2022/01/16 05:54:33;;;;;;;92.17;37.27;;;;;;;;;;5003656;28;20889;-82
2022/01/16 05:56:59;;;;;;;101.43;40.50;;;;;;;;;;5006629;28;20469;-81
2022/01/16 05:59:25;;;;;;;78.37;37.03;;;;;;;;;;5004544;28;20478;-83
2022/01/16 06:01:53;;;;;;;102.70;39.83;;;;;;;;;;5003510;28;20457;-80
2022/01/16 06:04:19;;;;;;;99.83;40.40;;;;;;;;;;5003452;28;20455;-82
2022/01/16 06:06:46;;;;;;;80.83;37.70;;;;;;;;;;5005979;28;20473;-83
2022/01/16 06:09:12;;;;;;;102.80;38.00;;;;;;;;;;5003250;28;20449;-82
2022/01/16 06:11:38;;;;;;;111.57;41.27;;;;;;;;;;5004402;28;20834;-82
2022/01/16 06:14:05;;;;;;;105.20;39.43;;;;;;;;;;5004815;28;20461;-82
2022/01/16 06:16:31;;;;;;;93.60;38.57;;;;;;;;;;5004122;28;20469;-85
2022/01/16 06:18:59;;;;;;;107.00;39.23;;;;;;;;;;5002183;28;20485;-83
2022/01/16 06:21:25;;;;;;;103.60;41.13;;;;;;;;;;5004913;28;21014;-81
2022/01/16 06:23:52;;;;;;;99.67;40.23;;;;;;;;;;5005528;28;20481;-83
2022/01/16 06:26:18;;;;;;;110.53;41.90;;;;;;;;;;5004853;28;20483;-83
2022/01/16 06:28:44;;;;;;;99.90;41.57;;;;;;;;;;5003899;28;20886;-82
2022/01/16 06:31:11;;;;;;;90.27;41.47;;;;;;;;;;5003479;28;20485;-82
2022/01/16 06:33:37;;;;;;;107.43;42.77;;;;;;;;;;5006399;28;20454;-85
2022/01/16 06:36:05;;;;;;;120.33;40.93;;;;;;;;;;5002127;28;20478;-84
2022/01/16 06:38:32;;;;;;;111.47;44.57;;;;;;;;;;5004642;28;20483;-82
2022/01/16 06:40:58;;;;;;;117.87;43.30;;;;;;;;;;5004634;28;20470;-82
2022/01/16 06:43:24;;;;;;;109.33;44.23;;;;;;;;;;5006132;28;20457;-82
2022/01/16 06:45:50;;;;;;;100.90;42.10;;;;;;;;;;5004299;28;20473;-82
2022/01/16 06:48:17;;;;;;;110.20;43.57;;;;;;;;;;5005645;28;20442;-83
2022/01/16 06:50:43;;;;;;;118.70;46.57;;;;;;;;;;5006304;28;20506;-82
2022/01/16 06:53:11;;;;;;;111.20;40.53;;;;;;;;;;5003167;28;20466;-83
2022/01/16 06:55:37;;;;;;;107.20;41.30;;;;;;;;;;5003614;28;21020;-82
2022/01/16 06:58:03;;;;;;;104.90;42.27;;;;;;;;;;5004026;28;20477;-82
2022/01/16 07:00:30;;;;;;;110.43;42.17;;;;;;;;;;5003370;28;20568;-82
2022/01/16 07:02:56;;;;;;;112.27;42.67;;;;;;;;;;5005755;28;20947;-83
2022/01/16 07:05:22;;;;;;;121.97;44.90;;;;;;;;;;5005935;28;20488;-85
2022/01/16 07:07:49;;;;;;;104.53;43.20;;;;;;;;;;5005015;28;20978;-85
2022/01/16 07:10:16;;;;;;;115.30;43.67;;;;;;;;;;5000977;28;20482;-82
2022/01/16 07:12:43;;;;;;;121.30;41.93;;;;;;;;;;5004086;28;20446;-82
2022/01/16 07:15:10;;;;;;;112.77;43.93;;;;;;;;;;5005313;28;20996;-83
2022/01/16 07:17:36;;;;;;;110.30;43.63;;;;;;;;;;5005170;28;20470;-83
2022/01/16 07:20:03;;;;;;;110.67;42.60;;;;;;;;;;5003380;28;20485;-83
2022/01/16 07:22:29;;;;;;;103.30;42.07;;;;;;;;;;5004646;28;20458;-82
2022/01/16 07:24:56;;;;;;;110.60;42.77;;;;;;;;;;5004269;28;20477;-82
2022/01/16 07:27:23;;;;;;;111.90;43.30;;;;;;;;;;5006584;28;20469;-83
2022/01/16 07:29:50;;;;;;;109.90;40.17;;;;;;;;;;5003786;28;20474;-84
2022/01/16 07:32:16;;;;;;;107.83;43.30;;;;;;;;;;5004977;28;20449;-82
2022/01/16 07:34:42;;;;;;;112.23;43.23;;;;;;;;;;5002093;28;20458;-83
2022/01/16 07:37:09;;;;;;;113.47;40.60;;;;;;;;;;5004675;28;20485;-84
2022/01/16 07:39:37;;;;;;;112.37;42.83;;;;;;;;;;5003407;28;20558;-82
2022/01/16 07:42:04;;;;;;;115.87;43.60;;;;;;;;;;5005814;28;20869;-82
2022/01/16 07:44:32;;;;;;;104.17;45.57;;;;;;;;;;5005152;28;20466;-82
2022/01/16 07:46:58;;;;;;;116.20;44.50;;;;;;;;;;5004081;28;20569;-82
2022/01/16 07:49:24;;;;;;;116.43;43.90;;;;;;;;;;5005876;28;20477;-84
2022/01/16 07:51:51;;;;;;;115.53;44.20;;;;;;;;;;5000506;28;20462;-83
2022/01/16 07:54:18;;;;;;;117.43;46.07;;;;;;;;;;5004531;28;20450;-82
2022/01/16 07:56:45;;;;;;;115.83;43.50;;;;;;;;;;5006486;28;20897;-83
2022/01/16 07:59:11;;;;;;;108.13;44.20;;;;;;;;;;5005272;28;20527;-82
2022/01/16 08:01:39;;;;;;;121.20;44.17;;;;;;;;;;5005130;28;20526;-82
2022/01/16 08:04:05;;;;;;;106.50;45.40;;;;;;;;;;5006164;28;20450;-82
2022/01/16 08:06:32;;;;;;;109.30;45.60;;;;;;;;;;5007204;28;20486;-83
2022/01/16 08:08:58;;;;;;;122.63;46.60;;;;;;;;;;5002488;28;20473;-83
2022/01/16 08:11:24;;;;;;;125.27;44.53;;;;;;;;;;5004413;28;20478;-84
2022/01/16 08:13:51;;;;;;;111.87;44.97;;;;;;;;;;5002614;28;20558;-84
2022/01/16 08:16:17;;;;;;;105.80;43.70;;;;;;;;;;5003722;28;21027;-84
2022/01/16 08:18:45;;;;;;;113.73;45.63;;;;;;;;;;4999219;28;20516;-81
2022/01/16 08:21:11;;;;;;;108.23;43.53;;;;;;;;;;5002277;28;20486;-82
2022/01/16 08:23:37;;;;;;;114.67;47.00;;;;;;;;;;5006919;28;20474;-81
2022/01/16 08:26:04;;;;;;;109.63;44.73;;;;;;;;;;5004872;28;20544;-81
2022/01/16 08:28:30;;;;;;;126.53;43.60;;;;;;;;;;5005358;28;20455;-83
2022/01/16 08:30:57;;;;;;;115.23;47.43;;;;;;;;;;5005527;28;20474;-81
2022/01/16 08:33:23;;;;;;;123.50;46.60;;;;;;;;;;5005942;28;20553;-84
2022/01/16 08:35:51;;;;;;;117.10;46.23;;;;;;;;;;5005312;28;20474;-82
2022/01/16 08:38:17;;;;;;;117.30;45.57;;;;;;;;;;5006006;28;20482;-84
2022/01/16 08:40:43;;;;;;;116.63;47.43;;;;;;;;;;5004814;28;20475;-83
2022/01/16 08:43:10;;;;;;;103.87;45.67;;;;;;;;;;5007944;28;20978;-82
2022/01/16 08:45:36;;;;;;;123.23;46.17;;;;;;;;;;5004907;28;20479;-83
2022/01/16 08:48:03;;;;;;;110.70;45.53;;;;;;;;;;5018005;22;20498;-84
2022/01/16 08:50:31;;;;;;;111.90;45.90;;;;;;;;;;4999803;28;20477;-86
2022/01/16 08:52:58;;;;;;;119.00;44.50;;;;;;;;;;5000102;28;20457;-86
2022/01/16 08:55:25;;;;;;;113.93;45.10;;;;;;;;;;4999924;28;20474;-87
2022/01/16 08:57:51;;;;;;;108.80;42.00;;;;;;;;;;5007181;28;20476;-86
2022/01/16 09:00:18;;;;;;;113.67;44.50;;;;;;;;;;5021270;28;20525;-85
2022/01/16 09:02:44;;;;;;;133.17;47.57;;;;;;;;;;5023573;28;20468;-86
2022/01/16 09:05:10;;;;;;;126.70;44.50;;;;;;;;;;5023434;28;21030;-86
2022/01/16 09:07:37;;;;;;;112.07;42.87;;;;;;;;;;5028029;28;20473;-86
2022/01/16 09:10:05;;;;;;;112.83;45.00;;;;;;;;;;5027710;28;20471;-85
2022/01/16 09:12:31;;;;;;;111.87;43.43;;;;;;;;;;5028176;28;20654;-86
2022/01/16 09:14:58;;;;;;;114.03;46.10;;;;;;;;;;5028498;28;20516;-86
2022/01/16 09:17:24;;;;;;;107.80;45.90;;;;;;;;;;5026626;28;20449;-86
2022/01/16 09:19:51;;;;;;;127.03;45.00;;;;;;;;;;5025286;28;20468;-86
2022/01/16 09:22:17;;;;;;;111.93;43.83;;;;;;;;;;5028367;28;20452;-86
2022/01/16 09:24:44;;;;;;;120.43;44.80;;;;;;;;;;5028804;28;20472;-85
2022/01/16 09:27:11;;;;;;;103.00;41.63;;;;;;;;;;5028763;28;20449;-86
2022/01/16 09:29:38;;;;;;;112.23;43.00;;;;;;;;;;5028793;28;20469;-86
2022/01/16 09:32:05;;;;;;;109.63;43.37;;;;;;;;;;5028714;28;20935;-85
2022/01/16 09:34:31;;;;;;;114.30;45.87;;;;;;;;;;5026372;28;20574;-86
2022/01/16 09:36:58;;;;;;;114.13;43.33;;;;;;;;;;5028057;28;20461;-86
2022/01/16 09:39:24;;;;;;;118.40;43.87;;;;;;;;;;5028082;28;20470;-86
2022/01/16 09:41:51;;;;;;;107.10;44.57;;;;;;;;;;5027689;28;20453;-86
2022/01/16 09:44:18;;;;;;;117.63;44.00;;;;;;;;;;5028784;28;20455;-86
2022/01/16 09:46:45;;;;;;;112.70;47.10;;;;;;;;;;5025588;28;20457;-85
2022/01/16 09:49:11;;;;;;;107.90;41.87;;;;;;;;;;5027388;28;20485;-85
2022/01/16 09:51:37;;;;;;;130.17;45.80;;;;;;;;;;5026158;28;20468;-86
2022/01/16 09:54:05;;;;;;;117.47;44.07;;;;;;;;;;5027182;28;20480;-85
2022/01/16 09:56:31;;;;;;;114.63;45.20;;;;;;;;;;5028204;28;20808;-86
2022/01/16 09:58:58;;;;;;;113.10;43.43;;;;;;;;;;5028104;28;20491;-85
2022/01/16 10:01:25;;;;;;;115.07;46.67;;;;;;;;;;5025934;28;20477;-86
2022/01/16 10:03:52;;;;;;;124.67;47.80;;;;;;;;;;5026524;28;20449;-86
2022/01/16 10:06:20;;;;;;;126.77;47.87;;;;;;;;;;5027345;28;20488;-86
2022/01/16 10:08:48;;;;;;;118.73;52.50;;;;;;;;;;5026738;28;20981;-85
2022/01/16 10:11:21;;;;;;;124.23;46.87;;;;;;;;;;5024596;28;21016;-86
2022/01/16 10:13:57;;;;;;;112.27;44.10;;;;;;;;;;5028101;28;21086;-85
2022/01/16 10:16:26;;;;;;;128.10;45.63;;;;;;;;;;5024926;28;20469;-85
2022/01/16 10:18:52;;;;;;;121.27;46.87;;;;;;;;;;5026279;28;20480;-86
2022/01/16 10:21:31;;;;;;;117.17;49.53;;;;;;;;;;5025433;28;20488;-85
2022/01/16 10:23:57;;;;;;;116.03;47.00;;;;;;;;;;5024357;28;20441;-85
2022/01/16 10:26:24;;;;;;;112.13;47.10;;;;;;;;;;5025543;28;21009;-86
2022/01/16 10:28:51;;;;;;;105.27;46.07;;;;;;;;;;5025754;28;21082;-85
2022/01/16 10:31:20;;;;;;;132.47;45.87;;;;;;;;;;5026080;28;20484;-85
2022/01/16 10:33:47;;;;;;;126.20;47.30;;;;;;;;;;5026007;28;20472;-86
2022/01/16 10:36:14;;;;;;;128.83;46.83;;;;;;;;;;5025985;28;20476;-86
2022/01/16 10:38:40;;;;;;;136.57;47.90;;;;;;;;;;5023834;28;20472;-86
2022/01/16 10:41:13;;;;;;;126.70;48.00;;;;;;;;;;5027437;28;20474;-86
2022/01/16 10:43:42;;;;;;;128.93;50.63;;;;;;;;;;5027215;28;20457;-86
2022/01/16 10:46:08;;;;;;;141.60;48.77;;;;;;;;;;5025737;28;20481;-86
2022/01/16 10:48:35;;;;;;;107.27;48.23;;;;;;;;;;5026417;28;20851;-85
2022/01/16 10:51:03;;;;;;;121.00;48.97;;;;;;;;;;5025211;28;21073;-85
2022/01/16 10:53:30;;;;;;;134.03;49.30;;;;;;;;;;5023625;28;20460;-86
2022/01/16 10:55:57;;;;;;;115.60;46.77;;;;;;;;;;5025601;28;20488;-86
2022/01/16 10:58:24;;;;;;;112.70;46.33;;;;;;;;;;5026081;28;20488;-85
2022/01/16 11:00:54;;;;;;;128.50;50.10;;;;;;;;;;5022713;28;20492;-85
2022/01/16 11:03:21;;;;;;;128.33;53.17;;;;;;;;;;5026252;28;20456;-85
2022/01/16 11:05:49;;;;;;;108.77;48.00;;;;;;;;;;5024763;28;20502;-86
2022/01/16 11:08:17;;;;;;;114.30;50.20;;;;;;;;;;5019103;28;20481;-86
2022/01/16 11:10:44;;;;;;;119.70;47.70;;;;;;;;;;5024097;28;20481;-85
2022/01/16 11:13:11;;;;;;;122.17;49.43;;;;;;;;;;5024411;28;20463;-86
2022/01/16 11:15:39;;;;;;;121.80;50.90;;;;;;;;;;5024297;28;20572;-86
2022/01/16 11:18:06;;;;;;;118.20;50.07;;;;;;;;;;5025236;28;20897;-86
2022/01/16 11:20:34;;;;;;;121.40;50.63;;;;;;;;;;5021921;28;20485;-86
2022/01/16 11:23:05;;;;;;;115.17;46.30;;;;;;;;;;5026609;28;20457;-85
2022/01/16 11:25:38;;;;;;;107.60;48.10;;;;;;;;;;5022685;28;20503;-86
2022/01/16 11:28:06;;;;;;;116.33;46.43;;;;;;;;;;5025052;28;20569;-85
2022/01/16 11:30:34;;;;;;;118.57;48.60;;;;;;;;;;5021533;28;20547;-86
2022/01/16 11:33:00;;;;;;;115.80;47.73;;;;;;;;;;5025133;28;20445;-86
2022/01/16 11:35:27;;;;;;;100.97;46.83;;;;;;;;;;5025721;28;20551;-86
2022/01/16 11:37:54;;;;;;;114.47;47.10;;;;;;;;;;5025843;28;20477;-85
2022/01/16 11:40:28;;;;;;;110.60;48.17;;;;;;;;;;5024707;28;20480;-86
2022/01/16 11:43:27;;;;;;;103.90;42.13;;;;;;;;;;5025620;28;20449;-87
2022/01/16 11:46:10;;;;;;;101.70;44.67;;;;;;;;;;5025187;28;20485;-86
2022/01/16 11:48:44;;;;;;;96.00;45.20;;;;;;;;;;5021850;28;21094;-86
2022/01/16 11:51:29;;;;;;;89.70;43.53;;;;;;;;;;5024647;28;20472;-86
2022/01/16 11:54:06;;;;;;;91.17;45.50;;;;;;;;;;5025182;28;20453;-86
2022/01/16 11:56:51;;;;;;;100.67;45.40;;;;;;;;;;5023731;28;20472;-86
2022/01/16 11:59:19;;;;;;;101.67;43.97;;;;;;;;;;5023472;28;20552;-86
2022/01/16 12:01:48;;;;;;;107.37;45.37;;;;;;;;;;5021540;28;20880;-86
2022/01/16 12:04:29;;;;;;;103.90;45.57;;;;;;;;;;5024723;28;20457;-86
2022/01/16 12:06:55;;;;;;;107.67;44.07;;;;;;;;;;5023826;28;20970;-86
2022/01/16 12:09:37;;;;;;;95.10;43.80;;;;;;;;;;5021129;28;20990;-86
2022/01/16 12:12:04;;;;;;;105.03;47.93;;;;;;;;;;5024538;28;20460;-86
2022/01/16 12:14:45;;;;;;;93.40;45.20;;;;;;;;;;5021991;28;21032;-86
2022/01/16 12:17:26;;;;;;;109.70;49.00;;;;;;;;;;5022457;28;20960;-86
2022/01/16 12:19:53;;;;;;;90.07;44.30;;;;;;;;;;5022458;28;20477;-85
2022/01/16 12:22:40;;;;;;;96.77;46.57;;;;;;;;;;5024749;28;20449;-85
2022/01/16 12:25:08;;;;;;;102.50;44.23;;;;;;;;;;5022095;28;20482;-86
2022/01/16 12:27:45;;;;;;;98.50;47.87;;;;;;;;;;5023686;28;20848;-86
2022/01/16 12:30:32;;;;;;;113.73;44.67;;;;;;;;;;5020862;28;20475;-86
2022/01/16 12:33:00;;;;;;;104.10;47.17;;;;;;;;;;5023745;28;20450;-86
2022/01/16 12:35:48;;;;;;;106.90;49.60;;;;;;;;;;5019534;28;20488;-86
2022/01/16 12:38:15;;;;;;;82.23;44.60;;;;;;;;;;5023193;28;20481;-86
2022/01/16 12:40:43;;;;;;;92.33;45.07;;;;;;;;;;5023070;28;20476;-87
2022/01/16 12:43:13;;;;;;;98.37;45.87;;;;;;;;;;5024368;28;20505;-85
2022/01/16 12:45:40;;;;;;;99.13;47.27;;;;;;;;;;5027216;28;20482;-85
2022/01/16 12:48:08;;;;;;;84.10;41.87;;;;;;;;;;5027386;28;20490;-86
2022/01/16 12:50:35;;;;;;;94.10;44.63;;;;;;;;;;5028700;28;20842;-86
2022/01/16 12:53:02;;;;;;;95.40;46.17;;;;;;;;;;5026935;28;20880;-86
2022/01/16 12:55:29;;;;;;;102.43;45.33;;;;;;;;;;5026953;28;20477;-87
2022/01/16 12:58:14;;;;;;;82.63;43.90;;;;;;;;;;5027374;28;20483;-86
2022/01/16 13:00:55;;;;;;;92.13;42.63;;;;;;;;;;5025589;28;20852;-86
2022/01/16 13:03:25;;;;;;;88.30;43.27;;;;;;;;;;5026276;28;20971;-86
2022/01/16 13:05:51;;;;;;;92.17;43.93;;;;;;;;;;5025682;28;20469;-87
2022/01/16 13:08:18;;;;;;;84.73;43.03;;;;;;;;;;5023826;28;20530;-86
2022/01/16 13:10:44;;;;;;;104.50;48.40;;;;;;;;;;5026565;28;20479;-86
2022/01/16 13:13:11;;;;;;;83.60;44.00;;;;;;;;;;5026680;28;20465;-86
2022/01/16 13:15:37;;;;;;;92.30;44.87;;;;;;;;;;5024955;28;20477;-86
2022/01/16 13:18:09;;;;;;;97.50;43.37;;;;;;;;;;5026604;28;20962;-85
2022/01/16 13:20:37;;;;;;;81.30;41.37;;;;;;;;;;5024965;28;20813;-86
2022/01/16 13:23:03;;;;;;;95.47;45.50;;;;;;;;;;5025663;28;20448;-86
2022/01/16 13:25:30;;;;;;;90.43;44.67;;;;;;;;;;5023571;28;20481;-86
2022/01/16 13:27:58;;;;;;;84.53;42.17;;;;;;;;;;5024508;28;20967;-86
2022/01/16 13:30:26;;;;;;;83.47;43.57;;;;;;;;;;5024205;28;20481;-86
2022/01/16 13:32:53;;;;;;;77.07;41.67;;;;;;;;;;5023450;28;20817;-86
2022/01/16 13:35:21;;;;;;;82.57;42.47;;;;;;;;;;5025364;28;20468;-86
2022/01/16 13:37:52;;;;;;;67.77;39.13;;;;;;;;;;5026255;28;20461;-86
2022/01/16 13:40:20;;;;;;;72.87;40.17;;;;;;;;;;5025143;28;20519;-86
2022/01/16 13:43:02;;;;;;;77.67;41.53;;;;;;;;;;5024801;28;20459;-86
2022/01/16 13:45:30;;;;;;;71.40;37.67;;;;;;;;;;5024197;28;20546;-86
2022/01/16 13:48:02;;;;;;;77.40;39.50;;;;;;;;;;5027150;28;20981;-86
2022/01/16 13:50:30;;;;;;;71.43;40.13;;;;;;;;;;5022955;28;20465;-86
2022/01/16 13:52:59;;;;;;;70.30;40.27;;;;;;;;;;5025468;28;20943;-86
2022/01/16 13:55:28;;;;;;;69.70;40.10;;;;;;;;;;5025809;28;20473;-86
2022/01/16 13:57:58;;;;;;;81.87;41.93;;;;;;;;;;5023573;28;20477;-86
2022/01/16 14:00:32;;;;;;;67.10;35.97;;;;;;;;;;5025264;28;20477;-87
2022/01/16 14:03:11;;;;;;;73.30;40.07;;;;;;;;;;5025563;28;20453;-87
2022/01/16 14:05:41;;;;;;;68.93;38.70;;;;;;;;;;5021748;28;20473;-86
2022/01/16 14:08:15;;;;;;;64.60;37.50;;;;;;;;;;5025124;28;20473;-87
2022/01/16 14:10:42;;;;;;;64.63;37.67;;;;;;;;;;5024908;28;20484;-86
2022/01/16 14:13:10;;;;;;;71.63;37.17;;;;;;;;;;5024811;28;20461;-87
2022/01/16 14:15:37;;;;;;;71.50;35.50;;;;;;;;;;5023776;28;20842;-86
2022/01/16 14:18:07;;;;;;;79.07;37.77;;;;;;;;;;5024933;28;20471;-86
2022/01/16 14:20:48;;;;;;;77.07;37.30;;;;;;;;;;5023296;28;21010;-87
2022/01/16 14:23:16;;;;;;;71.03;38.80;;;;;;;;;;5023349;28;20465;-86
2022/01/16 14:25:42;;;;;;;61.20;36.80;;;;;;;;;;5022671;28;20475;-87
2022/01/16 14:28:09;;;;;;;60.20;37.20;;;;;;;;;;5022573;28;20482;-85
2022/01/16 14:30:35;;;;;;;70.10;40.80;;;;;;;;;;5021365;28;20466;-86
2022/01/16 14:33:01;;;;;;;59.43;37.13;;;;;;;;;;5023425;28;20450;-86
2022/01/16 14:35:28;;;;;;;64.97;37.80;;;;;;;;;;5021922;28;20489;-86
2022/01/16 14:37:54;;;;;;;74.07;36.83;;;;;;;;;;5027545;28;20481;-87
2022/01/16 14:40:22;;;;;;;61.17;32.40;;;;;;;;;;5022130;28;20886;-86
2022/01/16 14:42:57;;;;;;;69.43;38.17;;;;;;;;;;5025159;28;20985;-86
2022/01/16 14:45:23;;;;;;;63.83;36.17;;;;;;;;;;5025928;28;21089;-86
2022/01/16 14:50:33;;;;;;;59.43;35.13;;;;;;;;;;4998936;28;20453;-79